Time;durP1;ratioP1;P1;durP2;ratioP2;P2;SDS_P1;SDS_P2;PMS_P1;PMS_P2;Temp;Humidity;BMP_temperature;BMP_pressure;BME280_temperature;BME280_humidity;BME280_pressure;Samples;Min_cycle;Max_cycle;Signal;HPM_P1;HPM_P2
2022/11/21 00:00:31;;;;;;;27.67;17.40;;;2.40;99.90;;;;;;5074365;28;20182;-76
2022/11/21 00:03:00;;;;;;;28.58;17.30;;;2.40;99.90;;;;;;5064709;28;20182;-75
2022/11/21 00:05:28;;;;;;;27.25;17.17;;;2.40;99.90;;;;;;5060323;28;21776;-75
2022/11/21 00:07:54;;;;;;;30.27;17.88;;;2.40;99.90;;;;;;5071736;28;20293;-76
2022/11/21 00:10:20;;;;;;;28.90;17.27;;;2.50;99.90;;;;;;5072441;28;20179;-76
2022/11/21 00:12:46;;;;;;;30.00;17.33;;;2.40;99.90;;;;;;5072589;28;20202;-75
2022/11/21 00:15:12;;;;;;;28.67;16.27;;;2.50;99.90;;;;;;5060953;28;20712;-75
2022/11/21 00:17:38;;;;;;;28.52;17.95;;;2.40;99.90;;;;;;5058704;28;20183;-75
2022/11/21 00:20:04;;;;;;;31.90;18.17;;;2.50;99.90;;;;;;5073786;28;20938;-76
2022/11/21 00:22:30;;;;;;;34.08;18.52;;;2.40;99.90;;;;;;5067483;28;20195;-76
2022/11/21 00:24:57;;;;;;;31.50;18.73;;;2.40;99.90;;;;;;5070918;28;20265;-75
2022/11/21 00:27:23;;;;;;;33.22;18.65;;;2.50;99.90;;;;;;5071032;28;20177;-76
2022/11/21 00:29:48;;;;;;;31.40;18.17;;;2.50;99.90;;;;;;5070263;28;20178;-75
2022/11/21 00:32:14;;;;;;;33.22;19.40;;;2.50;99.90;;;;;;5068947;28;20398;-76
2022/11/21 00:34:40;;;;;;;33.03;19.15;;;2.50;99.90;;;;;;5047198;28;20282;-75
2022/11/21 00:37:06;;;;;;;31.95;18.20;;;2.50;99.90;;;;;;5071733;28;20187;-76
2022/11/21 00:39:31;;;;;;;32.95;18.48;;;2.50;99.90;;;;;;5073252;28;20625;-75
2022/11/21 00:41:57;;;;;;;29.30;17.48;;;2.50;99.90;;;;;;5069674;28;20190;-75
2022/11/21 00:44:23;;;;;;;29.55;18.38;;;2.50;99.90;;;;;;5064295;28;20202;-75
2022/11/21 00:46:48;;;;;;;32.00;18.98;;;2.50;99.90;;;;;;5052955;28;20266;-75
2022/11/21 00:49:14;;;;;;;33.65;19.83;;;2.50;99.90;;;;;;5069765;28;20248;-76
2022/11/21 00:51:40;;;;;;;32.38;19.63;;;2.50;99.90;;;;;;5064926;28;20201;-75
2022/11/21 00:54:05;;;;;;;33.28;18.63;;;2.60;99.90;;;;;;5068530;28;20194;-76
2022/11/21 00:56:31;;;;;;;29.63;17.50;;;2.50;99.90;;;;;;5061440;28;20233;-75
2022/11/21 00:58:57;;;;;;;30.08;18.77;;;2.50;99.90;;;;;;5087061;28;20208;-76
2022/11/21 01:01:22;;;;;;;32.03;18.40;;;2.50;99.90;;;;;;5072035;28;20196;-75
2022/11/21 01:03:48;;;;;;;34.15;19.67;;;2.60;99.90;;;;;;5068295;28;20513;-75
2022/11/21 01:06:15;;;;;;;29.67;18.60;;;2.60;99.90;;;;;;5069806;28;20949;-75
2022/11/21 01:08:43;;;;;;;32.55;18.42;;;2.60;99.90;;;;;;5054081;28;20612;-75
2022/11/21 01:11:15;;;;;;;31.50;18.88;;;2.50;99.90;;;;;;5051020;28;20211;-76
2022/11/21 01:13:41;;;;;;;33.78;19.30;;;2.50;99.90;;;;;;5067295;28;20189;-76
2022/11/21 01:16:10;;;;;;;31.00;18.58;;;2.50;99.90;;;;;;5058424;28;20174;-81
2022/11/21 01:18:36;;;;;;;34.35;20.00;;;2.40;99.90;;;;;;5054960;28;20642;-75
2022/11/21 01:21:10;;;;;;;31.25;18.63;;;2.40;99.90;;;;;;5070528;28;20621;-75
2022/11/21 01:23:36;;;;;;;34.30;18.75;;;2.50;99.90;;;;;;5084572;28;20178;-75
2022/11/21 01:26:04;;;;;;;30.95;18.77;;;2.40;99.90;;;;;;5072439;28;20193;-76
2022/11/21 01:28:31;;;;;;;32.78;18.10;;;2.40;99.90;;;;;;5085492;28;20174;-75
2022/11/21 01:31:05;;;;;;;33.15;19.00;;;2.40;99.90;;;;;;5068769;28;20252;-76
2022/11/21 01:33:31;;;;;;;33.65;20.00;;;2.30;99.90;;;;;;5070703;28;20197;-75
2022/11/21 01:35:56;;;;;;;33.78;20.45;;;2.30;99.90;;;;;;5071055;28;20170;-75
2022/11/21 01:38:22;;;;;;;34.88;19.77;;;2.40;99.90;;;;;;5071710;28;20661;-75
2022/11/21 01:40:48;;;;;;;35.03;18.58;;;2.30;99.90;;;;;;5061749;28;20574;-80
2022/11/21 01:43:15;;;;;;;33.38;19.13;;;2.30;99.90;;;;;;5063660;28;20190;-75
2022/11/21 01:46:03;;;;;;;36.80;19.73;;;2.30;99.90;;;;;;5071313;28;20183;-75
2022/11/21 01:48:32;;;;;;;35.47;19.95;;;2.30;99.90;;;;;;5070069;28;20589;-74
2022/11/21 01:51:04;;;;;;;33.00;20.67;;;2.30;99.90;;;;;;5067579;28;20171;-74
2022/11/21 01:53:30;;;;;;;32.55;20.15;;;2.30;99.90;;;;;;5065062;28;20186;-75
2022/11/21 01:55:56;;;;;;;35.28;20.05;;;2.30;99.90;;;;;;5076819;28;20182;-76
2022/11/21 01:58:22;;;;;;;32.38;19.15;;;2.30;99.90;;;;;;5074487;28;20178;-74
2022/11/21 02:00:48;;;;;;;34.53;20.25;;;2.30;99.90;;;;;;5070937;28;20269;-74
2022/11/21 02:03:19;;;;;;;34.67;19.67;;;2.20;99.90;;;;;;5066478;28;20187;-75
2022/11/21 02:05:46;;;;;;;35.33;21.33;;;2.20;99.90;;;;;;5088626;28;20174;-75
2022/11/21 02:08:19;;;;;;;35.47;20.60;;;2.20;99.90;;;;;;5072849;28;20586;-75
2022/11/21 02:11:06;;;;;;;37.17;21.73;;;2.20;99.90;;;;;;5056412;28;20156;-75
2022/11/21 02:13:31;;;;;;;36.13;20.25;;;2.20;99.90;;;;;;5058164;28;20195;-75
2022/11/21 02:15:57;;;;;;;37.80;20.70;;;2.20;99.90;;;;;;5068276;28;20520;-75
2022/11/21 02:18:23;;;;;;;33.25;20.08;;;2.20;99.90;;;;;;5073624;28;20259;-75
2022/11/21 02:20:55;;;;;;;36.53;20.67;;;2.10;99.90;;;;;;5075173;28;20182;-78
2022/11/21 02:23:34;;;;;;;33.85;20.02;;;2.10;99.90;;;;;;5060748;28;20631;-75
2022/11/21 02:25:59;;;;;;;35.83;21.48;;;2.10;99.90;;;;;;5064789;28;20644;-76
2022/11/21 02:28:25;;;;;;;34.05;19.98;;;2.10;99.90;;;;;;5074333;28;20186;-76
2022/11/21 02:30:51;;;;;;;33.58;19.70;;;2.10;99.90;;;;;;5069864;28;20243;-74
2022/11/21 02:33:17;;;;;;;32.15;19.70;;;2.10;99.90;;;;;;5070131;28;20628;-75
2022/11/21 02:35:43;;;;;;;34.90;19.75;;;2.10;99.90;;;;;;5090029;28;20626;-75
2022/11/21 02:38:26;;;;;;;34.75;21.02;;;2.00;99.90;;;;;;5074303;28;20187;-75
2022/11/21 02:41:03;;;;;;;39.20;19.92;;;2.00;99.90;;;;;;5075354;28;20170;-75
2022/11/21 02:43:43;;;;;;;35.00;19.50;;;2.00;99.90;;;;;;5067948;28;20187;-75
2022/11/21 02:46:08;;;;;;;36.17;20.38;;;2.00;99.90;;;;;;5067280;28;20254;-75
2022/11/21 02:48:36;;;;;;;34.85;19.95;;;2.00;99.90;;;;;;5073608;28;20774;-75
2022/11/21 02:51:01;;;;;;;35.90;20.80;;;2.00;99.90;;;;;;5072164;28;20182;-75
2022/11/21 02:53:27;;;;;;;39.03;22.33;;;2.00;99.90;;;;;;5071766;28;20193;-75
2022/11/21 02:55:53;;;;;;;36.80;20.23;;;2.00;99.90;;;;;;5073126;28;20188;-76
2022/11/21 02:58:18;;;;;;;40.17;21.25;;;2.00;99.90;;;;;;5088047;28;20634;-75
2022/11/21 03:00:44;;;;;;;35.55;21.77;;;2.00;99.90;;;;;;5074121;28;20190;-76
2022/11/21 03:03:10;;;;;;;37.83;20.92;;;2.00;99.90;;;;;;5073686;28;20189;-75
2022/11/21 03:05:38;;;;;;;34.30;19.58;;;1.90;99.90;;;;;;5056541;28;20252;-76
2022/11/21 03:08:04;;;;;;;36.63;21.50;;;1.90;99.90;;;;;;5061616;28;20190;-76
2022/11/21 03:10:30;;;;;;;38.05;19.73;;;2.00;99.90;;;;;;5075330;28;20292;-78
2022/11/21 03:12:59;;;;;;;35.03;19.40;;;1.90;99.90;;;;;;5073572;28;20195;-75
2022/11/21 03:15:27;;;;;;;33.47;18.98;;;1.90;99.90;;;;;;5064270;28;20771;-77
2022/11/21 03:17:53;;;;;;;36.00;18.63;;;1.90;99.90;;;;;;5055695;28;20175;-75
2022/11/21 03:20:19;;;;;;;39.55;20.88;;;1.90;99.90;;;;;;5074920;28;20258;-76
2022/11/21 03:22:44;;;;;;;41.92;21.40;;;1.90;99.90;;;;;;5070774;28;20636;-75
2022/11/21 03:25:10;;;;;;;39.78;20.50;;;1.90;99.90;;;;;;5067832;28;20175;-75
2022/11/21 03:27:36;;;;;;;36.95;20.52;;;1.80;99.90;;;;;;5060245;28;20195;-75
2022/11/21 03:30:02;;;;;;;38.35;21.40;;;1.80;99.90;;;;;;5072775;28;20305;-76
2022/11/21 03:32:28;;;;;;;38.50;21.33;;;1.80;99.90;;;;;;5073086;28;20202;-75
2022/11/21 03:34:53;;;;;;;36.30;20.20;;;1.80;99.90;;;;;;5073172;28;20179;-76
2022/11/21 03:37:19;;;;;;;35.95;21.83;;;1.80;99.90;;;;;;5057959;28;20198;-75
2022/11/21 03:39:45;;;;;;;36.90;21.20;;;1.80;99.90;;;;;;5074316;28;20181;-76
2022/11/21 03:42:10;;;;;;;35.92;20.85;;;1.80;99.90;;;;;;5072176;28;20706;-75
2022/11/21 03:44:36;;;;;;;40.53;23.08;;;1.80;99.90;;;;;;5068022;28;20182;-75
2022/11/21 03:47:02;;;;;;;40.17;22.58;;;1.80;99.90;;;;;;5037769;28;21442;-76
2022/11/21 03:49:28;;;;;;;38.78;21.48;;;1.70;99.90;;;;;;5067358;28;20275;-76
2022/11/21 03:51:53;;;;;;;38.85;21.80;;;1.70;99.90;;;;;;5072941;28;20202;-79
2022/11/21 03:54:19;;;;;;;39.92;21.33;;;1.70;99.90;;;;;;5072938;28;20595;-76
2022/11/21 03:56:45;;;;;;;38.78;21.63;;;1.70;99.90;;;;;;5065910;28;20656;-75
2022/11/21 03:59:10;;;;;;;40.20;21.35;;;1.70;99.90;;;;;;5076258;28;20183;-77
2022/11/21 04:01:36;;;;;;;37.03;21.50;;;1.70;99.90;;;;;;5076942;28;20629;-75
2022/11/21 04:04:02;;;;;;;40.97;21.13;;;1.70;99.90;;;;;;5072927;28;20536;-75
2022/11/21 04:06:30;;;;;;;38.17;20.65;;;1.70;99.90;;;;;;5074601;28;20317;-75
2022/11/21 04:08:55;;;;;;;39.97;22.42;;;1.70;99.90;;;;;;5059955;28;20266;-75
2022/11/21 04:11:23;;;;;;;36.53;21.40;;;1.70;99.90;;;;;;5074033;28;20293;-75
2022/11/21 04:13:50;;;;;;;41.13;22.05;;;1.70;99.90;;;;;;5073212;28;20618;-76
2022/11/21 04:16:16;;;;;;;40.83;22.85;;;1.70;99.90;;;;;;5072830;28;20209;-75
2022/11/21 04:18:41;;;;;;;38.60;21.35;;;1.70;99.90;;;;;;5059403;28;22511;-76
2022/11/21 04:21:07;;;;;;;35.65;20.02;;;1.70;99.90;;;;;;5069325;28;20201;-76
2022/11/21 04:23:34;;;;;;;37.63;20.55;;;1.70;99.90;;;;;;5072467;28;20190;-76
2022/11/21 04:26:00;;;;;;;42.75;21.65;;;1.70;99.90;;;;;;5072253;28;20193;-76
2022/11/21 04:28:26;;;;;;;36.75;21.30;;;1.70;99.90;;;;;;5067327;28;20629;-77
2022/11/21 04:30:51;;;;;;;36.35;19.83;;;1.80;99.90;;;;;;5061217;28;20207;-76
2022/11/21 04:33:18;;;;;;;37.50;19.88;;;1.70;99.90;;;;;;5061734;28;20795;-76
2022/11/21 04:35:44;;;;;;;33.63;19.02;;;1.70;99.90;;;;;;5066008;28;20252;-74
2022/11/21 04:38:11;;;;;;;34.95;19.80;;;1.70;99.90;;;;;;5071027;28;20227;-76
2022/11/21 04:40:37;;;;;;;36.40;20.20;;;1.80;99.90;;;;;;5073542;28;20201;-76
2022/11/21 04:43:03;;;;;;;37.42;20.08;;;1.80;99.90;;;;;;5064790;28;20202;-82
2022/11/21 04:45:29;;;;;;;36.47;20.67;;;1.80;99.90;;;;;;5061509;28;20190;-76
2022/11/21 04:47:55;;;;;;;33.42;19.13;;;1.80;99.90;;;;;;5072028;28;20194;-76
2022/11/21 04:50:21;;;;;;;35.67;19.08;;;1.80;99.90;;;;;;5071068;28;20697;-76
2022/11/21 04:52:51;;;;;;;32.25;19.90;;;1.80;99.90;;;;;;5058259;28;20203;-77
2022/11/21 04:55:18;;;;;;;32.22;17.85;;;1.80;99.90;;;;;;5077144;28;20274;-77
2022/11/21 04:57:45;;;;;;;33.17;18.05;;;1.80;99.90;;;;;;5058852;28;20334;-76
2022/11/21 05:00:12;;;;;;;33.90;18.30;;;1.80;99.90;;;;;;5073298;28;20198;-76
2022/11/21 05:02:38;;;;;;;36.75;20.52;;;1.90;99.90;;;;;;5070905;28;20545;-76
2022/11/21 05:05:04;;;;;;;33.97;18.77;;;1.90;99.90;;;;;;5061233;28;20183;-75
2022/11/21 05:07:30;;;;;;;35.50;19.10;;;1.90;99.90;;;;;;5063652;28;20312;-76
2022/11/21 05:09:55;;;;;;;34.17;19.58;;;1.80;99.90;;;;;;5053964;28;20643;-76
2022/11/21 05:15:05;;;;;;;32.53;17.48;;;1.80;99.90;;;;;;5072696;28;20644;-76
2022/11/21 05:17:31;;;;;;;34.38;18.45;;;1.80;99.90;;;;;;5066920;28;20175;-76
2022/11/21 05:19:57;;;;;;;35.20;20.80;;;1.80;99.90;;;;;;5063326;28;20611;-77
2022/11/21 05:22:22;;;;;;;35.97;20.08;;;1.80;99.90;;;;;;5068629;28;20206;-76
2022/11/21 05:24:48;;;;;;;36.20;20.42;;;1.70;99.90;;;;;;5072414;28;20207;-76
2022/11/21 05:27:14;;;;;;;34.67;19.58;;;1.70;99.90;;;;;;5071199;28;20179;-76
2022/11/21 05:29:40;;;;;;;37.53;20.42;;;1.70;99.90;;;;;;5068982;28;20181;-76
2022/11/21 05:32:05;;;;;;;35.63;19.90;;;1.70;99.90;;;;;;5086056;28;20219;-79
2022/11/21 05:34:31;;;;;;;36.80;20.83;;;1.70;99.90;;;;;;5056265;28;20179;-76
2022/11/21 05:36:57;;;;;;;34.47;19.25;;;1.70;99.90;;;;;;5065092;28;20209;-77
2022/11/21 05:39:24;;;;;;;37.47;20.95;;;1.70;99.90;;;;;;5086735;28;20190;-76
2022/11/21 05:41:50;;;;;;;35.63;21.15;;;1.60;99.90;;;;;;5072495;28;20223;-75
2022/11/21 05:44:16;;;;;;;36.38;20.63;;;1.60;99.90;;;;;;5061977;28;21732;-80
2022/11/21 05:46:41;;;;;;;38.25;20.98;;;1.60;99.90;;;;;;5060250;28;20633;-76
2022/11/21 05:49:07;;;;;;;35.65;20.90;;;1.60;99.90;;;;;;5082454;28;20236;-76
2022/11/21 05:51:33;;;;;;;38.28;21.25;;;1.60;99.90;;;;;;5064221;28;20598;-75
2022/11/21 05:53:59;;;;;;;38.47;20.83;;;1.60;99.90;;;;;;5070845;28;20244;-76
2022/11/21 05:56:25;;;;;;;37.95;20.95;;;1.60;99.90;;;;;;5056291;28;20186;-76
2022/11/21 05:58:54;;;;;;;36.55;20.73;;;1.50;99.90;;;;;;5070595;28;20273;-80
2022/11/21 06:04:05;;;;;;;41.60;22.08;;;1.60;99.90;;;;;;5072131;28;20571;-81
2022/11/21 06:06:31;;;;;;;36.65;19.70;;;1.50;99.90;;;;;;5089103;28;20184;-74
2022/11/21 06:08:56;;;;;;;41.38;21.83;;;1.50;99.90;;;;;;5070508;28;20175;-75
2022/11/21 06:11:22;;;;;;;41.10;22.05;;;1.50;99.90;;;;;;5061316;28;20674;-80
2022/11/21 06:13:48;;;;;;;38.00;19.92;;;1.50;99.90;;;;;;5055446;28;20190;-75
2022/11/21 06:16:18;;;;;;;35.83;20.13;;;1.50;99.90;;;;;;5063475;28;20187;-77
2022/11/21 06:18:49;;;;;;;34.70;20.85;;;1.50;99.90;;;;;;5067553;28;20178;-75
2022/11/21 06:21:17;;;;;;;37.80;22.65;;;1.50;99.90;;;;;;5069720;28;20258;-75
2022/11/21 06:23:43;;;;;;;37.95;21.48;;;1.50;99.90;;;;;;5060817;28;20270;-75
2022/11/21 06:26:14;;;;;;;41.75;22.08;;;1.40;99.90;;;;;;5067769;28;20301;-75
2022/11/21 06:28:41;;;;;;;39.58;20.63;;;1.40;99.90;;;;;;5067318;28;20185;-75
2022/11/21 06:31:09;;;;;;;37.90;20.77;;;1.40;99.90;;;;;;5068242;28;20621;-75
2022/11/21 06:33:35;;;;;;;40.08;21.65;;;1.40;99.90;;;;;;5067638;28;20224;-75
2022/11/21 06:36:05;;;;;;;37.42;21.13;;;1.40;99.90;;;;;;5069603;28;20179;-75
2022/11/21 06:38:31;;;;;;;39.47;23.25;;;1.30;99.90;;;;;;5069205;28;20300;-75
2022/11/21 06:40:57;;;;;;;39.85;21.67;;;1.30;99.90;;;;;;5069170;28;20174;-75
2022/11/21 06:43:23;;;;;;;38.70;20.98;;;1.30;99.90;;;;;;5058210;28;20474;-75
2022/11/21 06:45:48;;;;;;;41.90;21.48;;;1.30;99.90;;;;;;5069075;28;20183;-75
2022/11/21 06:48:14;;;;;;;37.85;20.60;;;1.20;99.90;;;;;;5074487;28;20552;-75
2022/11/21 06:50:40;;;;;;;44.92;23.17;;;1.20;99.90;;;;;;5067441;28;20252;-78
2022/11/21 06:53:06;;;;;;;49.17;24.63;;;1.10;99.90;;;;;;5059825;28;20619;-75
2022/11/21 06:55:31;;;;;;;48.03;25.98;;;1.10;99.90;;;;;;5071981;28;20611;-75
2022/11/21 06:57:58;;;;;;;46.22;25.25;;;1.00;99.90;;;;;;5062481;28;20186;-75
2022/11/21 07:00:27;;;;;;;45.10;24.35;;;1.00;99.90;;;;;;5072120;28;20183;-80
2022/11/21 07:02:54;;;;;;;50.17;24.17;;;0.90;99.90;;;;;;5057767;28;20190;-74
2022/11/21 07:05:19;;;;;;;51.00;27.67;;;0.90;99.90;;;;;;5064147;28;20185;-73
2022/11/21 07:07:45;;;;;;;43.92;24.17;;;0.90;99.90;;;;;;5072050;28;20179;-74
2022/11/21 07:10:11;;;;;;;50.60;25.75;;;0.80;99.90;;;;;;5073579;28;20186;-75
2022/11/21 07:15:21;;;;;;;43.47;23.98;;;0.80;99.90;;;;;;5070824;28;20182;-74
2022/11/21 07:17:47;;;;;;;46.17;25.77;;;0.80;99.90;;;;;;5053208;28;20694;-75
2022/11/21 07:20:13;;;;;;;46.47;24.75;;;0.80;99.90;;;;;;5071749;28;20342;-75
2022/11/21 07:22:38;;;;;;;52.63;25.45;;;0.80;99.90;;;;;;5075768;28;20191;-76
2022/11/21 07:25:05;;;;;;;52.85;25.35;;;0.80;99.90;;;;;;5070140;28;20298;-75
2022/11/21 07:27:30;;;;;;;45.00;23.67;;;0.80;99.90;;;;;;5074369;28;20182;-74
2022/11/21 07:29:57;;;;;;;49.80;23.33;;;0.80;99.90;;;;;;5070757;28;20247;-75
2022/11/21 07:32:27;;;;;;;48.13;23.30;;;0.80;99.90;;;;;;5073218;28;20245;-74
2022/11/21 07:34:53;;;;;;;47.47;24.35;;;0.70;99.90;;;;;;5074545;28;20498;-75
2022/11/21 07:37:19;;;;;;;54.00;23.95;;;0.70;99.90;;;;;;5065869;28;20194;-80
2022/11/21 07:39:44;;;;;;;55.92;25.73;;;0.80;99.90;;;;;;5065496;28;20602;-78
2022/11/21 07:42:10;;;;;;;48.72;24.48;;;0.80;99.90;;;;;;5064701;28;20199;-77
2022/11/21 07:44:36;;;;;;;49.53;23.80;;;0.90;99.90;;;;;;5067936;28;20216;-76
2022/11/21 07:47:01;;;;;;;48.50;23.42;;;0.90;99.90;;;;;;5060243;28;20217;-80
2022/11/21 07:49:27;;;;;;;61.58;25.85;;;1.00;99.90;;;;;;5077033;28;20185;-76
2022/11/21 07:51:53;;;;;;;59.72;29.60;;;1.00;99.90;;;;;;5070201;28;20278;-74
2022/11/21 07:54:19;;;;;;;50.40;26.80;;;1.00;99.90;;;;;;5066566;28;20196;-79
2022/11/21 07:56:44;;;;;;;53.03;29.02;;;1.00;99.90;;;;;;5073982;28;20247;-75
2022/11/21 07:59:10;;;;;;;52.92;27.67;;;1.00;99.90;;;;;;5069123;28;20175;-74
2022/11/21 08:01:36;;;;;;;48.60;23.45;;;1.10;99.90;;;;;;5054254;28;20278;-74
2022/11/21 08:04:02;;;;;;;48.42;25.40;;;1.10;99.90;;;;;;5064861;28;20186;-75
2022/11/21 08:06:27;;;;;;;50.83;24.45;;;1.10;99.90;;;;;;5059457;28;20194;-75
2022/11/21 08:08:53;;;;;;;50.85;24.33;;;1.10;99.90;;;;;;5056335;28;20731;-75
2022/11/21 08:11:19;;;;;;;46.67;22.20;;;1.20;99.90;;;;;;5070260;28;20586;-74
2022/11/21 08:13:46;;;;;;;53.05;30.38;;;1.30;99.90;;;;;;5071925;28;20190;-80
2022/11/21 08:16:11;;;;;;;44.55;22.45;;;1.50;99.90;;;;;;5080205;28;20583;-76
2022/11/21 08:18:37;;;;;;;45.78;23.83;;;2.00;99.90;;;;;;5066897;28;20261;-74
2022/11/21 08:21:03;;;;;;;46.15;25.05;;;2.70;99.90;;;;;;5073740;28;20650;-73
2022/11/21 08:23:30;;;;;;;43.10;23.67;;;3.30;99.90;;;;;;5073656;28;20301;-74
2022/11/21 08:25:56;;;;;;;45.35;24.02;;;4.00;99.90;;;;;;5073436;28;20193;-74
2022/11/21 08:28:22;;;;;;;42.55;23.77;;;4.60;99.90;;;;;;5063591;28;20187;-78
2022/11/21 08:30:48;;;;;;;40.22;23.23;;;5.20;99.90;;;;;;5064860;28;20281;-74
2022/11/21 08:33:14;;;;;;;39.83;21.83;;;5.70;99.90;;;;;;5068782;28;20271;-75
2022/11/21 08:35:41;;;;;;;38.13;22.35;;;6.20;99.90;;;;;;5069757;28;20197;-74
2022/11/21 08:38:07;;;;;;;39.25;22.40;;;6.60;99.90;;;;;;5071861;28;20186;-74
2022/11/21 08:40:34;;;;;;;36.10;21.55;;;6.80;99.90;;;;;;5065944;28;20249;-75
2022/11/21 08:43:03;;;;;;;35.05;21.65;;;6.90;99.90;;;;;;5065009;28;20192;-75
2022/11/21 08:45:29;;;;;;;35.22;21.63;;;7.00;99.90;;;;;;5072864;28;20185;-74
2022/11/21 08:47:54;;;;;;;41.10;22.42;;;7.20;99.90;;;;;;5070334;28;20179;-75
2022/11/21 08:50:21;;;;;;;37.45;21.95;;;7.20;99.90;;;;;;5062381;28;20229;-80
2022/11/21 08:52:47;;;;;;;37.53;22.85;;;7.00;99.90;;;;;;5063959;28;20570;-75
2022/11/21 08:55:13;;;;;;;42.17;24.83;;;6.80;99.90;;;;;;5071341;28;20570;-75
2022/11/21 08:57:40;;;;;;;39.50;23.77;;;6.40;99.90;;;;;;5071644;28;20178;-75
2022/11/21 09:00:08;;;;;;;35.10;23.00;;;5.90;99.90;;;;;;5071292;28;20187;-75
2022/11/21 09:02:34;;;;;;;38.85;23.45;;;5.40;99.90;;;;;;5057821;28;20189;-75
2022/11/21 09:05:00;;;;;;;41.80;24.13;;;5.10;99.90;;;;;;5077050;28;20709;-75
2022/11/21 09:07:26;;;;;;;39.72;24.65;;;4.80;99.90;;;;;;5086980;28;20270;-74
2022/11/21 09:09:52;;;;;;;38.58;23.65;;;4.50;99.90;;;;;;5059525;28;20236;-74
2022/11/21 09:12:18;;;;;;;40.42;23.80;;;4.10;99.90;;;;;;5061847;28;20738;-78
2022/11/21 09:20:13;;;;;;;41.60;23.95;;;3.70;99.90;;;;;;5070534;28;20292;-75
2022/11/21 09:22:38;;;;;;;39.00;23.17;;;3.50;99.90;;;;;;5061084;28;20194;-75
2022/11/21 09:25:04;;;;;;;37.10;22.77;;;3.30;99.90;;;;;;5057669;28;20516;-74
2022/11/21 09:27:30;;;;;;;39.30;23.55;;;3.20;99.90;;;;;;5065472;28;20191;-76
2022/11/21 09:29:56;;;;;;;44.20;24.50;;;3.20;99.90;;;;;;5059795;28;20228;-75
2022/11/21 09:32:22;;;;;;;41.58;24.13;;;3.10;99.90;;;;;;5065909;28;20225;-75
2022/11/21 09:34:48;;;;;;;41.00;22.27;;;3.00;99.90;;;;;;5059462;28;20679;-76
2022/11/21 09:37:13;;;;;;;36.65;21.02;;;3.00;99.90;;;;;;5064019;28;20792;-76
2022/11/21 09:39:39;;;;;;;37.72;22.38;;;2.90;99.90;;;;;;5070509;28;20625;-76
2022/11/21 09:42:25;;;;;;;36.75;21.77;;;2.90;99.90;;;;;;5060215;28;20190;-78
2022/11/21 09:45:12;;;;;;;38.22;21.33;;;2.90;99.90;;;;;;5060982;28;20659;-75
2022/11/21 09:47:43;;;;;;;36.03;21.05;;;2.90;99.90;;;;;;5070997;28;20185;-75
2022/11/21 09:50:11;;;;;;;35.95;20.88;;;2.90;99.90;;;;;;5072513;28;20639;-75
2022/11/21 09:53:01;;;;;;;36.45;21.92;;;2.90;99.90;;;;;;5071438;28;20210;-75
2022/11/21 09:55:41;;;;;;;36.03;20.85;;;2.90;99.90;;;;;;5061558;28;20213;-75
2022/11/21 09:58:33;;;;;;;33.60;20.10;;;3.00;99.90;;;;;;5062503;28;20189;-75
2022/11/21 10:00:59;;;;;;;35.22;19.63;;;3.00;99.90;;;;;;5059683;28;20222;-75
2022/11/21 10:03:28;;;;;;;32.53;19.65;;;3.00;99.90;;;;;;5086554;28;20217;-75
2022/11/21 10:06:04;;;;;;;35.00;20.75;;;3.10;99.90;;;;;;5068485;28;20187;-77
2022/11/21 10:08:45;;;;;;;34.45;19.70;;;3.20;99.90;;;;;;5058284;28;20190;-80
2022/11/21 10:11:26;;;;;;;32.95;19.73;;;3.20;99.90;;;;;;5068666;28;20179;-75
2022/11/21 10:14:25;;;;;;;37.78;20.88;;;3.40;99.90;;;;;;5069281;28;20254;-74
2022/11/21 10:17:06;;;;;;;36.72;20.55;;;3.60;99.90;;;;;;5061099;28;20661;-76
2022/11/21 10:19:56;;;;;;;34.42;20.58;;;3.90;99.90;;;;;;5057254;28;20178;-79
2022/11/21 10:22:22;;;;;;;34.17;20.77;;;4.40;99.90;;;;;;5065966;28;20282;-76
2022/11/21 10:24:58;;;;;;;36.05;21.70;;;4.80;99.90;;;;;;5060355;28;20189;-75
2022/11/21 10:27:33;;;;;;;37.33;22.45;;;5.20;99.90;;;;;;5058560;28;20188;-75
2022/11/21 10:30:06;;;;;;;34.22;21.42;;;5.50;99.90;;;;;;5068405;28;20243;-79
2022/11/21 10:32:42;;;;;;;34.47;22.10;;;5.60;99.90;;;;;;5064695;28;20686;-75
2022/11/21 10:35:42;;;;;;;38.10;22.50;;;5.50;99.90;;;;;;5061053;28;20200;-75
2022/11/21 10:38:23;;;;;;;39.17;23.33;;;5.40;99.90;;;;;;5069950;28;20647;-75
2022/11/21 10:40:52;;;;;;;36.05;23.02;;;5.30;99.90;;;;;;5067220;28;20222;-75
2022/11/21 10:46:09;;;;;;;37.13;22.05;;;5.10;99.90;;;;;;5075629;28;20240;-76
2022/11/21 10:48:35;;;;;;;42.85;23.05;;;5.10;99.90;;;;;;5074223;28;20656;-75
2022/11/21 10:51:13;;;;;;;38.78;24.02;;;5.10;99.90;;;;;;5072131;28;20349;-79
2022/11/21 10:56:26;;;;;;;35.47;22.20;;;5.00;99.90;;;;;;5070204;28;20671;-75
2022/11/21 10:58:54;;;;;;;31.30;19.05;;;4.90;99.90;;;;;;5074177;28;20200;-74
2022/11/21 11:01:33;;;;;;;36.50;21.67;;;4.90;99.90;;;;;;5072827;28;20553;-81
2022/11/21 11:04:14;;;;;;;31.33;21.02;;;4.70;99.90;;;;;;5058329;28;20183;-80
2022/11/21 11:06:42;;;;;;;32.25;19.83;;;4.60;99.90;;;;;;5069293;28;20177;-75
2022/11/21 11:09:32;;;;;;;28.40;18.80;;;4.50;99.90;;;;;;5072087;28;20253;-77
2022/11/21 11:12:22;;;;;;;29.73;18.23;;;4.60;99.90;;;;;;5070469;28;20229;-76
2022/11/21 11:14:55;;;;;;;24.75;16.70;;;4.70;99.90;;;;;;5060660;28;20186;-74
2022/11/21 11:17:32;;;;;;;27.73;17.30;;;4.80;99.90;;;;;;5072356;28;20183;-74
2022/11/21 11:20:26;;;;;;;33.20;16.90;;;4.90;99.90;;;;;;5062764;28;20269;-75
2022/11/21 11:22:51;;;;;;;24.70;15.75;;;5.20;99.90;;;;;;5068884;28;20221;-76
2022/11/21 11:25:17;;;;;;;23.48;15.00;;;5.60;99.90;;;;;;5055774;28;20265;-80
2022/11/21 11:27:43;;;;;;;24.10;15.00;;;5.90;99.90;;;;;;5065017;28;20269;-75
2022/11/21 11:30:15;;;;;;;23.48;14.77;;;6.20;99.90;;;;;;5087979;28;20553;-78
2022/11/21 11:32:40;;;;;;;21.38;14.73;;;6.50;99.90;;;;;;5071696;28;20683;-77
2022/11/21 11:35:12;;;;;;;23.58;14.27;;;6.70;99.90;;;;;;5064999;28;20214;-83
2022/11/21 11:37:39;;;;;;;22.73;13.88;;;6.90;99.90;;;;;;5079948;28;20545;-78
2022/11/21 11:40:37;;;;;;;25.05;14.27;;;7.20;99.90;;;;;;5074337;28;20178;-76
2022/11/21 11:49:10;;;;;;;21.55;13.20;;;7.50;99.90;;;;;;5072088;28;20186;-75
2022/11/21 11:51:41;;;;;;;19.30;12.70;;;7.40;99.90;;;;;;5073733;28;20572;-75
2022/11/21 11:54:31;;;;;;;18.35;12.75;;;7.30;99.90;;;;;;5072378;28;20183;-75
2022/11/21 11:56:58;;;;;;;18.48;12.50;;;7.10;99.90;;;;;;5058601;28;20175;-77
2022/11/21 11:59:36;;;;;;;19.85;12.63;;;7.00;99.90;;;;;;5072891;28;20217;-75
2022/11/21 12:02:27;;;;;;;19.45;12.85;;;6.90;99.90;;;;;;5062868;28;20599;-76
2022/11/21 12:05:08;;;;;;;22.48;13.10;;;7.00;99.90;;;;;;5068086;28;20182;-76
2022/11/21 12:07:39;;;;;;;21.65;12.60;;;7.00;99.90;;;;;;5064813;28;20210;-78
2022/11/21 12:10:14;;;;;;;20.60;11.85;;;7.00;99.90;;;;;;5058222;28;20236;-79
2022/11/21 12:12:51;;;;;;;18.25;11.10;;;6.80;99.90;;;;;;5070591;28;20236;-76
2022/11/21 12:18:22;;;;;;;17.85;11.80;;;6.70;99.90;;;;;;5070012;28;20214;-76
2022/11/21 12:21:13;;;;;;;18.73;11.90;;;6.70;99.90;;;;;;5072221;28;20201;-77
2022/11/21 12:23:52;;;;;;;21.98;12.65;;;6.50;99.90;;;;;;5066440;28;20243;-75
2022/11/21 12:26:33;;;;;;;19.27;12.23;;;6.50;99.90;;;;;;5072668;28;20185;-76
2022/11/21 12:29:34;;;;;;;18.08;11.85;;;6.40;99.90;;;;;;5082768;28;20190;-77
2022/11/21 12:32:18;;;;;;;20.38;12.05;;;6.30;99.90;;;;;;5018084;28;20223;-77
2022/11/21 12:35:04;;;;;;;20.30;12.40;;;6.20;99.90;;;;;;5058543;28;20186;-76
2022/11/21 12:37:42;;;;;;;16.83;10.77;;;6.10;99.90;;;;;;5072690;28;20174;-76
2022/11/21 12:40:44;;;;;;;16.90;11.43;;;6.00;99.90;;;;;;5067641;28;20186;-76
2022/11/21 12:43:37;;;;;;;20.83;12.63;;;5.90;99.90;;;;;;5069278;28;20182;-77
2022/11/21 12:46:24;;;;;;;21.77;13.13;;;5.80;99.90;;;;;;5074686;28;20948;-76
2022/11/21 12:55:04;;;;;;;22.88;14.18;;;5.60;99.90;;;;;;5069527;28;20269;-76
2022/11/21 12:57:36;;;;;;;25.40;15.60;;;5.50;99.90;;;;;;5071641;28;20166;-74
2022/11/21 13:00:19;;;;;;;25.05;15.45;;;5.50;99.90;;;;;;5072868;28;20589;-75
2022/11/21 13:03:28;;;;;;;26.35;16.27;;;5.40;99.90;;;;;;5071953;28;20190;-77
2022/11/21 13:05:56;;;;;;;30.30;18.42;;;5.30;99.90;;;;;;5055832;28;20186;-76
2022/11/21 13:08:28;;;;;;;28.60;18.20;;;5.30;99.90;;;;;;5067016;28;20212;-78
2022/11/21 13:14:15;;;;;;;30.55;19.15;;;5.20;99.90;;;;;;5067959;28;20202;-78
2022/11/21 13:16:48;;;;;;;31.30;18.88;;;5.10;99.90;;;;;;5056804;28;20179;-82
2022/11/21 13:19:23;;;;;;;32.42;18.85;;;5.10;99.90;;;;;;5077339;28;20209;-77
2022/11/21 13:21:52;;;;;;;33.00;19.20;;;5.00;99.90;;;;;;5069451;28;20237;-76
2022/11/21 13:24:57;;;;;;;30.90;18.60;;;5.00;99.90;;;;;;5065727;28;20182;-78